DAL1232 KATL-KDTW
Flight info
| Callsign | DAL1232 |
|---|---|
| Flight time | 1h 29m |
| Altitude | 33000 |
| Route | PADGT2 SMTTH Q67 HNN SUBWY HTROD2 |
| Aircraft | B753/M-SDE2E3FGHIJ3J4J7RWXY/LB1 |
Departure
| Time | 2026-05-05 02:08 |
|---|---|
| Airport | Hartsfield Jackson Atlanta International Airport (KATL) |
Arrival
| Time | 2026-05-05 03:37 |
|---|---|
| Airport | Detroit Metropolitan Wayne County Airport (KDTW) |
| Time | Latitude | Longitude | Altitude | Speed | Heading |
|---|---|---|---|---|---|
| 2026-05-05 01:36 | 33.63924 | -84.43858 | 1016 ft | 0 kts | 269° |
| 2026-05-05 01:53 | 33.63924 | -84.43843 | 1016 ft | 2 kts | 269° |
| 2026-05-05 01:53 | 33.63924 | -84.43825 | 1015 ft | 2 kts | 269° |
| 2026-05-05 01:53 | 33.63923 | -84.43807 | 1015 ft | 2 kts | 298° |
| 2026-05-05 01:54 | 33.63913 | -84.43793 | 1015 ft | 2 kts | 324° |
| 2026-05-05 01:54 | 33.63900 | -84.43787 | 1015 ft | 2 kts | 351° |
| 2026-05-05 01:54 | 33.63892 | -84.43786 | 1015 ft | 1 kts | 3° |
| 2026-05-05 01:54 | 33.63889 | -84.43786 | 1015 ft | 0 kts | 1° |
| 2026-05-05 01:57 | 33.63891 | -84.43786 | 1015 ft | 1 kts | 1° |
| 2026-05-05 01:58 | 33.63909 | -84.43786 | 1015 ft | 3 kts | 1° |
| 2026-05-05 01:58 | 33.63938 | -84.43786 | 1015 ft | 4 kts | 1° |
| 2026-05-05 01:58 | 33.63973 | -84.43785 | 1015 ft | 5 kts | 1° |
| 2026-05-05 01:58 | 33.64009 | -84.43785 | 1015 ft | 4 kts | 359° |
| 2026-05-05 01:59 | 33.64041 | -84.43786 | 1016 ft | 4 kts | 359° |
| 2026-05-05 01:59 | 33.64070 | -84.43786 | 1017 ft | 5 kts | 360° |
| 2026-05-05 01:59 | 33.64116 | -84.43787 | 1017 ft | 6 kts | 360° |
| 2026-05-05 01:59 | 33.64158 | -84.43787 | 1018 ft | 5 kts | 2° |
| 2026-05-05 02:00 | 33.64198 | -84.43784 | 1018 ft | 5 kts | 2° |
| 2026-05-05 02:00 | 33.64242 | -84.43783 | 1018 ft | 9 kts | 0° |
| 2026-05-05 02:00 | 33.64320 | -84.43784 | 1018 ft | 12 kts | 360° |
| 2026-05-05 02:00 | 33.64400 | -84.43787 | 1018 ft | 10 kts | 354° |
| 2026-05-05 02:01 | 33.64454 | -84.43757 | 1017 ft | 9 kts | 68° |
| 2026-05-05 02:01 | 33.64458 | -84.43649 | 1015 ft | 17 kts | 90° |
| 2026-05-05 02:01 | 33.64458 | -84.43491 | 1012 ft | 19 kts | 91° |
| 2026-05-05 02:01 | 33.64458 | -84.43336 | 1010 ft | 18 kts | 90° |
| 2026-05-05 02:02 | 33.64458 | -84.43178 | 1007 ft | 18 kts | 89° |
| 2026-05-05 02:02 | 33.64459 | -84.43021 | 1006 ft | 20 kts | 90° |
| 2026-05-05 02:02 | 33.64460 | -84.42831 | 1002 ft | 23 kts | 89° |
| 2026-05-05 02:02 | 33.64469 | -84.42637 | 999 ft | 23 kts | 90° |
| 2026-05-05 02:03 | 33.64469 | -84.42436 | 991 ft | 25 kts | 90° |
| 2026-05-05 02:03 | 33.64487 | -84.42223 | 982 ft | 26 kts | 59° |
| 2026-05-05 02:03 | 33.64544 | -84.42014 | 975 ft | 27 kts | 90° |
| 2026-05-05 02:03 | 33.64542 | -84.41789 | 971 ft | 26 kts | 90° |
| 2026-05-05 02:04 | 33.64543 | -84.41576 | 971 ft | 24 kts | 90° |
| 2026-05-05 02:04 | 33.64542 | -84.41387 | 974 ft | 21 kts | 90° |
| 2026-05-05 02:04 | 33.64542 | -84.41224 | 975 ft | 18 kts | 90° |
| 2026-05-05 02:04 | 33.64542 | -84.41082 | 978 ft | 15 kts | 90° |
| 2026-05-05 02:05 | 33.64542 | -84.40953 | 978 ft | 18 kts | 90° |
| 2026-05-05 02:05 | 33.64558 | -84.40794 | 977 ft | 18 kts | 74° |
| 2026-05-05 02:05 | 33.64570 | -84.40673 | 977 ft | 9 kts | 89° |
| 2026-05-05 02:05 | 33.64575 | -84.40610 | 976 ft | 5 kts | 72° |
| 2026-05-05 02:06 | 33.64576 | -84.40607 | 976 ft | 0 kts | 70° |
| 2026-05-05 02:06 | 33.64583 | -84.40590 | 976 ft | 5 kts | 54° |
| 2026-05-05 02:06 | 33.64642 | -84.40572 | 978 ft | 11 kts | 343° |
| 2026-05-05 02:06 | 33.64680 | -84.40690 | 981 ft | 23 kts | 270° |
| 2026-05-05 02:07 | 33.64679 | -84.41065 | 984 ft | 69 kts | 270° |
| 2026-05-05 02:07 | 33.64677 | -84.41844 | 974 ft | 117 kts | 270° |
| 2026-05-05 02:07 | 33.64677 | -84.42996 | 1005 ft | 155 kts | 269° |
| 2026-05-05 02:07 | 33.64681 | -84.44353 | 1161 ft | 171 kts | 270° |
| 2026-05-05 02:08 | 33.64724 | -84.45785 | 1446 ft | 174 kts | 274° |
| 2026-05-05 02:08 | 33.64951 | -84.47248 | 1749 ft | 181 kts | 288° |
| 2026-05-05 02:08 | 33.65472 | -84.48684 | 2144 ft | 193 kts | 297° |
| 2026-05-05 02:08 | 33.66188 | -84.50004 | 2877 ft | 190 kts | 303° |
| 2026-05-05 02:09 | 33.66986 | -84.51366 | 3264 ft | 208 kts | 298° |
| 2026-05-05 02:09 | 33.67746 | -84.52918 | 3650 ft | 228 kts | 295° |
| 2026-05-05 02:09 | 33.68509 | -84.54643 | 4341 ft | 235 kts | 294° |
| 2026-05-05 02:09 | 33.69383 | -84.56293 | 5136 ft | 241 kts | 314° |
| 2026-05-05 02:10 | 33.70851 | -84.57279 | 5840 ft | 251 kts | 347° |
| 2026-05-05 02:10 | 33.72634 | -84.57529 | 6392 ft | 267 kts | 356° |
| 2026-05-05 02:10 | 33.74541 | -84.57639 | 7084 ft | 276 kts | 357° |
| 2026-05-05 02:10 | 33.76447 | -84.57700 | 7947 ft | 278 kts | 357° |
| 2026-05-05 02:11 | 33.78442 | -84.57767 | 8446 ft | 296 kts | 358° |
| 2026-05-05 02:11 | 33.80507 | -84.57783 | 9331 ft | 297 kts | 2° |
| 2026-05-05 02:11 | 33.82538 | -84.57322 | 9967 ft | 307 kts | 15° |
| 2026-05-05 02:11 | 33.84621 | -84.56580 | 9991 ft | 313 kts | 15° |
| 2026-05-05 02:12 | 33.86709 | -84.55836 | 9985 ft | 303 kts | 16° |
| 2026-05-05 02:12 | 33.90732 | -84.54373 | 9996 ft | 304 kts | 16° |
| 2026-05-05 02:12 | 33.92777 | -84.53623 | 9997 ft | 304 kts | 16° |
| 2026-05-05 02:13 | 33.94787 | -84.52884 | 9993 ft | 302 kts | 16° |
| 2026-05-05 02:13 | 33.96814 | -84.52138 | 9999 ft | 302 kts | 16° |
| 2026-05-05 02:13 | 33.98859 | -84.51383 | 10020 ft | 306 kts | 16° |
| 2026-05-05 02:13 | 34.00917 | -84.50624 | 10534 ft | 319 kts | 16° |
| 2026-05-05 02:14 | 34.03119 | -84.49812 | 10954 ft | 337 kts | 16° |
| 2026-05-05 02:14 | 34.05426 | -84.48939 | 11278 ft | 358 kts | 17° |
| 2026-05-05 02:14 | 34.07865 | -84.48009 | 11620 ft | 376 kts | 16° |
| 2026-05-05 02:14 | 34.10370 | -84.47068 | 12251 ft | 383 kts | 16° |
| 2026-05-05 02:15 | 34.12923 | -84.46114 | 13000 ft | 387 kts | 16° |
| 2026-05-05 02:15 | 34.15513 | -84.45150 | 13689 ft | 391 kts | 15° |
| 2026-05-05 02:15 | 34.18126 | -84.44179 | 14338 ft | 396 kts | 15° |
| 2026-05-05 02:15 | 34.20773 | -84.43196 | 15125 ft | 397 kts | 15° |
| 2026-05-05 02:16 | 34.23425 | -84.42210 | 15733 ft | 403 kts | 15° |
| 2026-05-05 02:16 | 34.26107 | -84.41214 | 16445 ft | 405 kts | 15° |
| 2026-05-05 02:16 | 34.28804 | -84.40212 | 17075 ft | 408 kts | 14° |
| 2026-05-05 02:16 | 34.31587 | -84.39373 | 17634 ft | 411 kts | 8° |
| 2026-05-05 02:17 | 34.34384 | -84.38719 | 18261 ft | 413 kts | 8° |
| 2026-05-05 02:17 | 34.37231 | -84.38035 | 18819 ft | 416 kts | 8° |
| 2026-05-05 02:17 | 34.40091 | -84.37347 | 19405 ft | 418 kts | 8° |
| 2026-05-05 02:17 | 34.42938 | -84.36662 | 19924 ft | 422 kts | 8° |
| 2026-05-05 02:18 | 34.45842 | -84.35962 | 20513 ft | 423 kts | 8° |
| 2026-05-05 02:18 | 34.48753 | -84.35262 | 20997 ft | 427 kts | 8° |
| 2026-05-05 02:18 | 34.51664 | -84.34558 | 21572 ft | 427 kts | 8° |
| 2026-05-05 02:18 | 34.54604 | -84.33848 | 22008 ft | 432 kts | 8° |
| 2026-05-05 02:19 | 34.57569 | -84.33131 | 22544 ft | 433 kts | 8° |
| 2026-05-05 02:19 | 34.60535 | -84.32414 | 22966 ft | 437 kts | 8° |
| 2026-05-05 02:19 | 34.63527 | -84.31690 | 23510 ft | 437 kts | 8° |
| 2026-05-05 02:19 | 34.66526 | -84.30963 | 23922 ft | 441 kts | 8° |
| 2026-05-05 02:20 | 34.69543 | -84.30231 | 24375 ft | 443 kts | 8° |
| 2026-05-05 02:20 | 34.72577 | -84.29496 | 24864 ft | 445 kts | 8° |
| 2026-05-05 02:20 | 34.75622 | -84.28757 | 25243 ft | 449 kts | 8° |
| 2026-05-05 02:20 | 34.78735 | -84.28000 | 25718 ft | 450 kts | 8° |
| 2026-05-05 02:21 | 34.81811 | -84.27252 | 26079 ft | 453 kts | 8° |
| 2026-05-05 02:21 | 34.84921 | -84.26495 | 26439 ft | 457 kts | 8° |
| 2026-05-05 02:21 | 34.88051 | -84.25732 | 26882 ft | 457 kts | 8° |
| 2026-05-05 02:21 | 34.91168 | -84.24972 | 27247 ft | 460 kts | 8° |
| 2026-05-05 02:22 | 34.94346 | -84.24197 | 27611 ft | 463 kts | 8° |
| 2026-05-05 02:22 | 34.97488 | -84.23430 | 27985 ft | 465 kts | 8° |
| 2026-05-05 02:22 | 35.00650 | -84.22658 | 28342 ft | 467 kts | 8° |
| 2026-05-05 02:22 | 35.03861 | -84.21872 | 28693 ft | 469 kts | 8° |
| 2026-05-05 02:23 | 35.07097 | -84.21080 | 29088 ft | 470 kts | 8° |
| 2026-05-05 02:23 | 35.10276 | -84.20301 | 29426 ft | 472 kts | 8° |
| 2026-05-05 02:23 | 35.13551 | -84.19500 | 29699 ft | 475 kts | 7° |
| 2026-05-05 02:23 | 35.16794 | -84.18730 | 30042 ft | 477 kts | 7° |
| 2026-05-05 02:24 | 35.20091 | -84.17946 | 30361 ft | 479 kts | 7° |
| 2026-05-05 02:24 | 35.23373 | -84.17154 | 30759 ft | 479 kts | 7° |
| 2026-05-05 02:24 | 35.26672 | -84.16351 | 31209 ft | 478 kts | 7° |
| 2026-05-05 02:24 | 35.29899 | -84.15562 | 31700 ft | 475 kts | 7° |
| 2026-05-05 02:25 | 35.33152 | -84.14764 | 32090 ft | 474 kts | 7° |
| 2026-05-05 02:25 | 35.36412 | -84.13963 | 32457 ft | 474 kts | 7° |
| 2026-05-05 02:25 | 35.39623 | -84.13173 | 32762 ft | 474 kts | 7° |
| 2026-05-05 02:25 | 35.42886 | -84.12367 | 33055 ft | 472 kts | 7° |
| 2026-05-05 02:26 | 35.46101 | -84.11581 | 33013 ft | 473 kts | 6° |
| 2026-05-05 02:26 | 35.52549 | -84.10037 | 33010 ft | 468 kts | 6° |
| 2026-05-05 02:27 | 35.59049 | -84.08450 | 33009 ft | 476 kts | 6° |
| 2026-05-05 02:27 | 35.65550 | -84.06843 | 33003 ft | 479 kts | 7° |
| 2026-05-05 02:28 | 35.72081 | -84.05220 | 32999 ft | 478 kts | 7° |
| 2026-05-05 02:28 | 35.78602 | -84.03548 | 32995 ft | 478 kts | 7° |
| 2026-05-05 02:29 | 35.85128 | -84.01893 | 32991 ft | 478 kts | 7° |
| 2026-05-05 02:29 | 35.91570 | -83.99743 | 33005 ft | 486 kts | 19° |
| 2026-05-05 02:30 | 35.97606 | -83.95748 | 32992 ft | 493 kts | 24° |
| 2026-05-05 02:30 | 36.03551 | -83.91580 | 32993 ft | 490 kts | 25° |
| 2026-05-05 02:31 | 36.09451 | -83.87423 | 32990 ft | 493 kts | 25° |
| 2026-05-05 02:31 | 36.15430 | -83.83172 | 32990 ft | 493 kts | 25° |
| 2026-05-05 02:32 | 36.21328 | -83.78954 | 32987 ft | 492 kts | 25° |
| 2026-05-05 02:32 | 36.27263 | -83.74696 | 32994 ft | 491 kts | 25° |
| 2026-05-05 02:33 | 36.33200 | -83.70426 | 32993 ft | 491 kts | 25° |
| 2026-05-05 02:33 | 36.39095 | -83.66179 | 32992 ft | 490 kts | 25° |
| 2026-05-05 02:34 | 36.44979 | -83.61900 | 32989 ft | 491 kts | 25° |
| 2026-05-05 02:34 | 36.50897 | -83.57609 | 32987 ft | 490 kts | 25° |
| 2026-05-05 02:35 | 36.56764 | -83.53384 | 32987 ft | 489 kts | 25° |
| 2026-05-05 02:35 | 36.62664 | -83.49093 | 32986 ft | 489 kts | 26° |
| 2026-05-05 02:36 | 36.68520 | -83.44780 | 32991 ft | 488 kts | 26° |
| 2026-05-05 02:36 | 36.74355 | -83.40509 | 32990 ft | 487 kts | 25° |
| 2026-05-05 02:37 | 36.80228 | -83.36219 | 32980 ft | 488 kts | 25° |
| 2026-05-05 02:37 | 36.86099 | -83.31970 | 32960 ft | 488 kts | 26° |
| 2026-05-05 02:38 | 36.91964 | -83.27682 | 32964 ft | 487 kts | 26° |
| 2026-05-05 02:38 | 36.97787 | -83.23402 | 32980 ft | 486 kts | 26° |
| 2026-05-05 02:39 | 37.03714 | -83.19035 | 32972 ft | 492 kts | 26° |
| 2026-05-05 02:39 | 37.09604 | -83.14682 | 32948 ft | 490 kts | 26° |
| 2026-05-05 02:40 | 37.15481 | -83.10331 | 32953 ft | 492 kts | 26° |
| 2026-05-05 02:40 | 37.21383 | -83.05952 | 32946 ft | 494 kts | 26° |
| 2026-05-05 02:41 | 37.27324 | -83.01623 | 32947 ft | 491 kts | 23° |
| 2026-05-05 02:41 | 37.33424 | -82.97636 | 32946 ft | 493 kts | 23° |
| 2026-05-05 02:42 | 37.39498 | -82.93646 | 32945 ft | 491 kts | 23° |
| 2026-05-05 02:42 | 37.45576 | -82.89648 | 32947 ft | 492 kts | 23° |
| 2026-05-05 02:43 | 37.51670 | -82.85632 | 32934 ft | 493 kts | 23° |
| 2026-05-05 02:43 | 37.57737 | -82.81628 | 32935 ft | 494 kts | 23° |
| 2026-05-05 02:44 | 37.63871 | -82.77578 | 32940 ft | 494 kts | 23° |
| 2026-05-05 02:44 | 37.69931 | -82.73567 | 32928 ft | 494 kts | 23° |
| 2026-05-05 02:45 | 37.76043 | -82.69516 | 32928 ft | 494 kts | 23° |
| 2026-05-05 02:45 | 37.82145 | -82.65462 | 32926 ft | 493 kts | 23° |
| 2026-05-05 02:46 | 37.88213 | -82.61426 | 32923 ft | 494 kts | 23° |
| 2026-05-05 02:46 | 37.94303 | -82.57365 | 32912 ft | 493 kts | 23° |
| 2026-05-05 02:47 | 38.00409 | -82.53287 | 32905 ft | 495 kts | 23° |
| 2026-05-05 02:47 | 38.06503 | -82.49206 | 32893 ft | 496 kts | 23° |
| 2026-05-05 02:48 | 38.12599 | -82.45114 | 32900 ft | 494 kts | 23° |
| 2026-05-05 02:48 | 38.18689 | -82.41022 | 32899 ft | 494 kts | 23° |
| 2026-05-05 02:49 | 38.24757 | -82.36933 | 32899 ft | 493 kts | 23° |
| 2026-05-05 02:49 | 38.30836 | -82.32832 | 32893 ft | 495 kts | 24° |
| 2026-05-05 02:50 | 38.36908 | -82.28732 | 32891 ft | 494 kts | 23° |
| 2026-05-05 02:50 | 38.43016 | -82.24630 | 32889 ft | 493 kts | 24° |
| 2026-05-05 02:51 | 38.49061 | -82.20542 | 32891 ft | 494 kts | 24° |
| 2026-05-05 02:51 | 38.55161 | -82.16399 | 32892 ft | 494 kts | 24° |
| 2026-05-05 02:52 | 38.61219 | -82.12274 | 32884 ft | 493 kts | 24° |
| 2026-05-05 02:52 | 38.67276 | -82.08139 | 32885 ft | 492 kts | 24° |
| 2026-05-05 02:53 | 38.73509 | -82.04630 | 32894 ft | 485 kts | 11° |
| 2026-05-05 02:53 | 38.80127 | -82.03642 | 32889 ft | 476 kts | 353° |
| 2026-05-05 02:54 | 38.86712 | -82.04290 | 32870 ft | 475 kts | 351° |
| 2026-05-05 02:54 | 38.93304 | -82.05160 | 32867 ft | 475 kts | 350° |
| 2026-05-05 02:55 | 38.99868 | -82.06124 | 32862 ft | 474 kts | 349° |
| 2026-05-05 02:55 | 39.06484 | -82.07142 | 32858 ft | 475 kts | 349° |
| 2026-05-05 02:56 | 39.13051 | -82.08308 | 32857 ft | 474 kts | 349° |
| 2026-05-05 02:56 | 39.19588 | -82.09409 | 32858 ft | 475 kts | 349° |
| 2026-05-05 02:57 | 39.26234 | -82.10492 | 32850 ft | 477 kts | 349° |
| 2026-05-05 02:57 | 39.32880 | -82.11562 | 32847 ft | 477 kts | 350° |
| 2026-05-05 02:58 | 39.39488 | -82.12620 | 32837 ft | 477 kts | 350° |
| 2026-05-05 02:58 | 39.46083 | -82.13675 | 32841 ft | 477 kts | 350° |
| 2026-05-05 02:59 | 39.52729 | -82.14740 | 32838 ft | 476 kts | 350° |
| 2026-05-05 02:59 | 39.59330 | -82.15800 | 32837 ft | 477 kts | 350° |
| 2026-05-05 03:00 | 39.65927 | -82.16862 | 32825 ft | 479 kts | 350° |
| 2026-05-05 03:00 | 39.72540 | -82.17926 | 32825 ft | 479 kts | 350° |
| 2026-05-05 03:01 | 39.79166 | -82.18996 | 32820 ft | 479 kts | 350° |
| 2026-05-05 03:01 | 39.85804 | -82.20069 | 32819 ft | 479 kts | 350° |
| 2026-05-05 03:02 | 39.92400 | -82.21119 | 32814 ft | 479 kts | 351° |
| 2026-05-05 03:02 | 39.98959 | -82.22116 | 32811 ft | 480 kts | 351° |
| 2026-05-05 03:03 | 40.05582 | -82.23106 | 32812 ft | 481 kts | 350° |
| 2026-05-05 03:03 | 40.12232 | -82.24274 | 32815 ft | 480 kts | 350° |
| 2026-05-05 03:04 | 40.18823 | -82.25384 | 32806 ft | 480 kts | 351° |
| 2026-05-05 03:04 | 40.25485 | -82.26428 | 32806 ft | 481 kts | 350° |
| 2026-05-05 03:05 | 40.32098 | -82.27485 | 32806 ft | 481 kts | 351° |
| 2026-05-05 03:05 | 40.38739 | -82.28497 | 32805 ft | 481 kts | 350° |
| 2026-05-05 03:06 | 40.45414 | -82.29562 | 32803 ft | 481 kts | 350° |
| 2026-05-05 03:06 | 40.51953 | -82.31329 | 32802 ft | 476 kts | 340° |
| 2026-05-05 03:07 | 40.58234 | -82.33943 | 32777 ft | 469 kts | 339° |
| 2026-05-05 03:07 | 40.64359 | -82.36534 | 32770 ft | 458 kts | 339° |
| 2026-05-05 03:08 | 40.70457 | -82.39064 | 32765 ft | 463 kts | 340° |
| 2026-05-05 03:08 | 40.76476 | -82.41513 | 32278 ft | 442 kts | 339° |
| 2026-05-05 03:08 | 40.79386 | -82.42718 | 31731 ft | 437 kts | 339° |
| 2026-05-05 03:09 | 40.82272 | -82.43923 | 31224 ft | 442 kts | 339° |
| 2026-05-05 03:09 | 40.85222 | -82.45158 | 30736 ft | 449 kts | 339° |
| 2026-05-05 03:09 | 40.88235 | -82.46423 | 30226 ft | 453 kts | 339° |
| 2026-05-05 03:09 | 40.91242 | -82.47686 | 29674 ft | 455 kts | 339° |
| 2026-05-05 03:10 | 40.94239 | -82.48946 | 29101 ft | 453 kts | 339° |
| 2026-05-05 03:10 | 40.97249 | -82.50226 | 28547 ft | 448 kts | 338° |
| 2026-05-05 03:10 | 41.00182 | -82.51476 | 28101 ft | 441 kts | 339° |
| 2026-05-05 03:10 | 41.03070 | -82.52683 | 27756 ft | 436 kts | 339° |
| 2026-05-05 03:11 | 41.05963 | -82.53902 | 27323 ft | 439 kts | 339° |
| 2026-05-05 03:11 | 41.08830 | -82.55105 | 27194 ft | 422 kts | 338° |
| 2026-05-05 03:11 | 41.11586 | -82.56331 | 26719 ft | 414 kts | 338° |
| 2026-05-05 03:11 | 41.14293 | -82.57536 | 26242 ft | 408 kts | 338° |
| 2026-05-05 03:12 | 41.16969 | -82.58727 | 25799 ft | 405 kts | 338° |
| 2026-05-05 03:12 | 41.19634 | -82.59920 | 25375 ft | 403 kts | 337° |
| 2026-05-05 03:12 | 41.22272 | -82.61156 | 24969 ft | 402 kts | 337° |
| 2026-05-05 03:12 | 41.24900 | -82.62363 | 24570 ft | 400 kts | 337° |
| 2026-05-05 03:13 | 41.27526 | -82.63512 | 24175 ft | 398 kts | 338° |
| 2026-05-05 03:13 | 41.30047 | -82.64870 | 23793 ft | 390 kts | 328° |
| 2026-05-05 03:13 | 41.32408 | -82.66618 | 23397 ft | 389 kts | 326° |
| 2026-05-05 03:13 | 41.34758 | -82.68387 | 22993 ft | 387 kts | 326° |
| 2026-05-05 03:14 | 41.37086 | -82.70154 | 22592 ft | 384 kts | 326° |
| 2026-05-05 03:14 | 41.39389 | -82.71913 | 22199 ft | 382 kts | 326° |
| 2026-05-05 03:14 | 41.41703 | -82.73689 | 21789 ft | 381 kts | 325° |
| 2026-05-05 03:14 | 41.43984 | -82.75443 | 21387 ft | 377 kts | 325° |
| 2026-05-05 03:15 | 41.46238 | -82.77193 | 21008 ft | 375 kts | 324° |
| 2026-05-05 03:15 | 41.48459 | -82.78979 | 20620 ft | 373 kts | 324° |
| 2026-05-05 03:15 | 41.50685 | -82.80742 | 20234 ft | 372 kts | 325° |
| 2026-05-05 03:15 | 41.52919 | -82.82480 | 19860 ft | 371 kts | 326° |
| 2026-05-05 03:16 | 41.55146 | -82.84175 | 19499 ft | 369 kts | 324° |
| 2026-05-05 03:16 | 41.57340 | -82.85908 | 19155 ft | 367 kts | 324° |
| 2026-05-05 03:16 | 41.59520 | -82.87618 | 18785 ft | 366 kts | 324° |
| 2026-05-05 03:16 | 41.61723 | -82.89338 | 18419 ft | 364 kts | 325° |
| 2026-05-05 03:17 | 41.63911 | -82.91018 | 18040 ft | 363 kts | 326° |
| 2026-05-05 03:17 | 41.66089 | -82.92645 | 17696 ft | 359 kts | 325° |
| 2026-05-05 03:17 | 41.68162 | -82.94478 | 17325 ft | 352 kts | 315° |
| 2026-05-05 03:17 | 41.70019 | -82.96596 | 16980 ft | 349 kts | 315° |
| 2026-05-05 03:18 | 41.71849 | -82.98677 | 16630 ft | 348 kts | 314° |
| 2026-05-05 03:18 | 41.73685 | -83.00777 | 16266 ft | 345 kts | 314° |
| 2026-05-05 03:18 | 41.75489 | -83.02850 | 15912 ft | 343 kts | 314° |
| 2026-05-05 03:18 | 41.77294 | -83.04926 | 15551 ft | 342 kts | 314° |
| 2026-05-05 03:19 | 41.80851 | -83.09028 | 14865 ft | 336 kts | 313° |
| 2026-05-05 03:19 | 41.82630 | -83.11085 | 14511 ft | 336 kts | 313° |
| 2026-05-05 03:19 | 41.84383 | -83.13113 | 14175 ft | 335 kts | 313° |
| 2026-05-05 03:20 | 41.86160 | -83.15150 | 13831 ft | 332 kts | 314° |
| 2026-05-05 03:20 | 41.87922 | -83.17112 | 13515 ft | 330 kts | 314° |
| 2026-05-05 03:20 | 41.89686 | -83.19084 | 13220 ft | 330 kts | 314° |
| 2026-05-05 03:20 | 41.91428 | -83.21034 | 12853 ft | 329 kts | 314° |
| 2026-05-05 03:21 | 41.93177 | -83.22990 | 12595 ft | 325 kts | 314° |
| 2026-05-05 03:21 | 41.94916 | -83.24940 | 12353 ft | 325 kts | 314° |
| 2026-05-05 03:21 | 41.96643 | -83.26894 | 12029 ft | 326 kts | 313° |
| 2026-05-05 03:21 | 41.98327 | -83.28861 | 11689 ft | 320 kts | 313° |
| 2026-05-05 03:22 | 42.00062 | -83.30689 | 11674 ft | 310 kts | 324° |
| 2026-05-05 03:22 | 42.02044 | -83.31735 | 11692 ft | 304 kts | 343° |
| 2026-05-05 03:22 | 42.04131 | -83.31742 | 11708 ft | 307 kts | 7° |
| 2026-05-05 03:22 | 42.06234 | -83.30809 | 11721 ft | 328 kts | 18° |
| 2026-05-05 03:23 | 42.08332 | -83.29510 | 11677 ft | 331 kts | 22° |
| 2026-05-05 03:23 | 42.10331 | -83.28010 | 11684 ft | 328 kts | 22° |
| 2026-05-05 03:23 | 42.12357 | -83.26612 | 11678 ft | 329 kts | 24° |
| 2026-05-05 03:23 | 42.14376 | -83.25131 | 11672 ft | 330 kts | 25° |
| 2026-05-05 03:24 | 42.16365 | -83.23621 | 11662 ft | 321 kts | 25° |
| 2026-05-05 03:24 | 42.18256 | -83.22163 | 11659 ft | 307 kts | 25° |
| 2026-05-05 03:24 | 42.20061 | -83.20743 | 11654 ft | 293 kts | 25° |
| 2026-05-05 03:24 | 42.21751 | -83.19402 | 11657 ft | 276 kts | 25° |
| 2026-05-05 03:25 | 42.23405 | -83.18123 | 11660 ft | 272 kts | 21° |
| 2026-05-05 03:25 | 42.25149 | -83.16904 | 11414 ft | 288 kts | 22° |
| 2026-05-05 03:25 | 42.26911 | -83.15644 | 11046 ft | 289 kts | 23° |
| 2026-05-05 03:25 | 42.28694 | -83.14363 | 10670 ft | 291 kts | 22° |
| 2026-05-05 03:26 | 42.30500 | -83.13078 | 10257 ft | 295 kts | 22° |
| 2026-05-05 03:26 | 42.32323 | -83.11787 | 9794 ft | 300 kts | 22° |
| 2026-05-05 03:26 | 42.34185 | -83.10470 | 9214 ft | 303 kts | 22° |
| 2026-05-05 03:26 | 42.36031 | -83.09161 | 8716 ft | 297 kts | 22° |
| 2026-05-05 03:27 | 42.37848 | -83.07873 | 8298 ft | 288 kts | 22° |
| 2026-05-05 03:27 | 42.39573 | -83.06649 | 8014 ft | 276 kts | 22° |
| 2026-05-05 03:27 | 42.41236 | -83.05498 | 7857 ft | 257 kts | 20° |
| 2026-05-05 03:27 | 42.42852 | -83.04407 | 7671 ft | 261 kts | 21° |
| 2026-05-05 03:28 | 42.44493 | -83.03277 | 7426 ft | 267 kts | 21° |
| 2026-05-05 03:28 | 42.46166 | -83.02259 | 7060 ft | 260 kts | 4° |
| 2026-05-05 03:28 | 42.47882 | -83.02280 | 6766 ft | 236 kts | 331° |
| 2026-05-05 03:28 | 42.49164 | -83.03426 | 6585 ft | 217 kts | 298° |
| 2026-05-05 03:29 | 42.49678 | -83.05287 | 6472 ft | 209 kts | 265° |
| 2026-05-05 03:29 | 42.49269 | -83.07133 | 6344 ft | 208 kts | 236° |
| 2026-05-05 03:29 | 42.48444 | -83.08768 | 6143 ft | 209 kts | 243° |
| 2026-05-05 03:29 | 42.47820 | -83.10523 | 5966 ft | 203 kts | 249° |
| 2026-05-05 03:30 | 42.47318 | -83.12283 | 5963 ft | 199 kts | 251° |
| 2026-05-05 03:30 | 42.46864 | -83.14064 | 5971 ft | 203 kts | 244° |
| 2026-05-05 03:30 | 42.45932 | -83.15506 | 6012 ft | 212 kts | 217° |
| 2026-05-05 03:30 | 42.44622 | -83.16515 | 5639 ft | 220 kts | 214° |
| 2026-05-05 03:31 | 42.43294 | -83.17516 | 5188 ft | 213 kts | 214° |
| 2026-05-05 03:31 | 42.42065 | -83.18436 | 5033 ft | 198 kts | 215° |
| 2026-05-05 03:31 | 42.40824 | -83.19372 | 4760 ft | 205 kts | 214° |
| 2026-05-05 03:31 | 42.39569 | -83.20309 | 4531 ft | 205 kts | 214° |
| 2026-05-05 03:32 | 42.38325 | -83.21233 | 4245 ft | 204 kts | 214° |
| 2026-05-05 03:32 | 42.37100 | -83.22144 | 3973 ft | 198 kts | 214° |
| 2026-05-05 03:32 | 42.35917 | -83.23018 | 3689 ft | 189 kts | 214° |
| 2026-05-05 03:32 | 42.34788 | -83.23854 | 3420 ft | 180 kts | 214° |
| 2026-05-05 03:33 | 42.33723 | -83.24642 | 3191 ft | 170 kts | 214° |
| 2026-05-05 03:33 | 42.32724 | -83.25378 | 3027 ft | 154 kts | 215° |
| 2026-05-05 03:33 | 42.31827 | -83.26038 | 2802 ft | 138 kts | 215° |
| 2026-05-05 03:33 | 42.30983 | -83.26669 | 2620 ft | 142 kts | 214° |
| 2026-05-05 03:34 | 42.30094 | -83.27333 | 2447 ft | 148 kts | 214° |
| 2026-05-05 03:34 | 42.29203 | -83.27993 | 2228 ft | 145 kts | 213° |
| 2026-05-05 03:34 | 42.28338 | -83.28631 | 2049 ft | 144 kts | 213° |
| 2026-05-05 03:34 | 42.27450 | -83.29290 | 1735 ft | 142 kts | 212° |
| 2026-05-05 03:35 | 42.26595 | -83.29920 | 1596 ft | 140 kts | 212° |
| 2026-05-05 03:35 | 42.25728 | -83.30563 | 1485 ft | 144 kts | 211° |
| 2026-05-05 03:35 | 42.24885 | -83.31184 | 1255 ft | 134 kts | 211° |
| 2026-05-05 03:35 | 42.24110 | -83.31755 | 1083 ft | 122 kts | 210° |
| 2026-05-05 03:36 | 42.23358 | -83.32310 | 963 ft | 126 kts | 210° |
| 2026-05-05 03:36 | 42.22581 | -83.32933 | 826 ft | 129 kts | 211° |
| 2026-05-05 03:36 | 42.21803 | -83.33542 | 657 ft | 130 kts | 208° |
| 2026-05-05 03:36 | 42.21101 | -83.34051 | 638 ft | 86 kts | 208° |
| 2026-05-05 03:37 | 42.20694 | -83.34341 | 638 ft | 57 kts | 210° |
| 2026-05-05 03:37 | 42.20428 | -83.34540 | 638 ft | 35 kts | 208° |
| 2026-05-05 03:37 | 42.20246 | -83.34676 | 638 ft | 20 kts | 211° |
| 2026-05-05 03:37 | 42.20186 | -83.34829 | 638 ft | 18 kts | 267° |
| 2026-05-05 03:38 | 42.20179 | -83.34994 | 638 ft | 17 kts | 268° |
| 2026-05-05 03:38 | 42.20176 | -83.35145 | 638 ft | 15 kts | 270° |
| 2026-05-05 03:38 | 42.20174 | -83.35278 | 640 ft | 12 kts | 269° |
| 2026-05-05 03:38 | 42.20173 | -83.35378 | 641 ft | 9 kts | 269° |
| 2026-05-05 03:39 | 42.20172 | -83.35459 | 641 ft | 7 kts | 269° |
| 2026-05-05 03:39 | 42.20170 | -83.35527 | 641 ft | 6 kts | 268° |
| 2026-05-05 03:39 | 42.20169 | -83.35592 | 641 ft | 8 kts | 268° |
| 2026-05-05 03:39 | 42.20167 | -83.35711 | 641 ft | 15 kts | 269° |
| 2026-05-05 03:40 | 42.20164 | -83.35857 | 641 ft | 15 kts | 268° |
| 2026-05-05 03:40 | 42.20161 | -83.35992 | 641 ft | 13 kts | 269° |
| 2026-05-05 03:40 | 42.20158 | -83.36115 | 641 ft | 12 kts | 271° |
| 2026-05-05 03:40 | 42.20170 | -83.36219 | 641 ft | 10 kts | 281° |
| 2026-05-05 03:41 | 42.20183 | -83.36307 | 641 ft | 8 kts | 281° |
| 2026-05-05 03:41 | 42.20205 | -83.36387 | 641 ft | 12 kts | 310° |
| 2026-05-05 03:41 | 42.20296 | -83.36390 | 641 ft | 14 kts | 18° |
| 2026-05-05 03:41 | 42.20382 | -83.36329 | 642 ft | 12 kts | 29° |
| 2026-05-05 03:42 | 42.20452 | -83.36277 | 644 ft | 9 kts | 28° |
| 2026-05-05 03:42 | 42.20511 | -83.36234 | 644 ft | 9 kts | 28° |
| 2026-05-05 03:42 | 42.20620 | -83.36153 | 644 ft | 24 kts | 28° |
| 2026-05-05 03:42 | 42.20772 | -83.36041 | 644 ft | 24 kts | 29° |
| 2026-05-05 03:43 | 42.20922 | -83.35929 | 644 ft | 23 kts | 28° |
| 2026-05-05 03:43 | 42.21066 | -83.35825 | 644 ft | 23 kts | 29° |
| 2026-05-05 03:43 | 42.21201 | -83.35725 | 644 ft | 17 kts | 29° |
| 2026-05-05 03:43 | 42.21238 | -83.35681 | 644 ft | 3 kts | 81° |
| 2026-05-05 03:44 | 42.21237 | -83.35667 | 644 ft | 0 kts | 107° |
| 2026-05-05 03:44 | 42.21233 | -83.35651 | 644 ft | 4 kts | 111° |
| 2026-05-05 03:44 | 42.21223 | -83.35627 | 644 ft | 1 kts | 120° |
| 2026-05-05 03:44 | 42.21216 | -83.35610 | 644 ft | 1 kts | 120° |
| 2026-05-05 03:45 | 42.21213 | -83.35603 | 644 ft | 2 kts | 120° |
| 2026-05-05 03:45 | 42.21209 | -83.35594 | 644 ft | 0 kts | 120° |
| 2026-05-05 03:45 | 42.21209 | -83.35593 | 644 ft | 0 kts | 120° |